Time;durP1;ratioP1;P1;durP2;ratioP2;P2;SDS_P1;SDS_P2;PMS_P1;PMS_P2;Temp;Humidity;BMP_temperature;BMP_pressure;BME280_temperature;BME280_humidity;BME280_pressure;Samples;Min_cycle;Max_cycle;Signal;HPM_P1;HPM_P2
2022/08/30 06:49:18;;;;;;;9.20;7.15;;;18.70;99.90;;;;;;5111778;27;20266;-77
2022/08/30 06:51:46;;;;;;;7.05;5.88;;;18.70;99.90;;;;;;5129220;27;20200;-76
2022/08/30 06:54:13;;;;;;;6.82;6.22;;;18.80;99.90;;;;;;5124912;27;20204;-76
2022/08/30 06:56:41;;;;;;;7.15;6.45;;;18.80;99.90;;;;;;5082959;28;20221;-76
2022/08/30 06:59:09;;;;;;;7.45;6.75;;;18.80;99.90;;;;;;5112139;27;20208;-76
2022/08/30 07:01:36;;;;;;;8.55;6.18;;;18.60;99.90;;;;;;5105507;27;20193;-76
2022/08/30 07:04:04;;;;;;;8.40;7.55;;;18.70;99.90;;;;;;5081101;28;20571;-77
2022/08/30 07:06:33;;;;;;;8.80;6.95;;;18.70;99.90;;;;;;5077980;28;20224;-76
2022/08/30 07:09:01;;;;;;;6.82;6.20;;;18.70;99.90;;;;;;5077443;28;20204;-77
2022/08/30 07:11:31;;;;;;;7.13;6.43;;;18.80;99.90;;;;;;5079049;28;20208;-78
2022/08/30 07:13:58;;;;;;;6.35;5.75;;;18.60;99.90;;;;;;5086552;28;20200;-78
2022/08/30 07:16:26;;;;;;;6.75;6.15;;;19.10;99.90;;;;;;5076139;28;20217;-77
2022/08/30 07:18:57;;;;;;;5.38;4.88;;;19.20;99.90;;;;;;5095086;28;20299;-78
2022/08/30 07:21:28;;;;;;;7.18;6.00;;;19.50;99.90;;;;;;5078477;28;20209;-78
2022/08/30 07:23:58;;;;;;;7.50;6.22;;;19.40;99.90;;;;;;5075423;28;20219;-77
2022/08/30 07:26:28;;;;;;;5.68;4.88;;;19.10;99.90;;;;;;5092857;28;20221;-76
2022/08/30 07:28:56;;;;;;;5.13;4.55;;;19.50;99.90;;;;;;5084936;28;20201;-78
2022/08/30 07:31:24;;;;;;;5.57;4.57;;;19.60;99.90;;;;;;5078264;28;20201;-75
2022/08/30 07:33:52;;;;;;;5.22;4.72;;;19.90;99.90;;;;;;5108299;27;20202;-77
2022/08/30 07:36:20;;;;;;;5.43;4.88;;;20.10;99.90;;;;;;5076098;28;20714;-76
2022/08/30 07:38:49;;;;;;;6.30;4.68;;;20.30;99.90;;;;;;5071385;28;20221;-76
2022/08/30 07:41:20;;;;;;;5.20;4.72;;;20.00;99.90;;;;;;5080871;28;20685;-76
2022/08/30 07:43:48;;;;;;;4.85;4.45;;;20.10;99.90;;;;;;5079926;28;20201;-76
2022/08/30 07:46:16;;;;;;;5.32;4.20;;;20.20;99.90;;;;;;5074294;28;20233;-76
2022/08/30 07:48:44;;;;;;;4.82;4.35;;;20.40;99.90;;;;;;5076775;28;20197;-76
2022/08/30 07:51:13;;;;;;;4.32;3.90;;;20.60;99.90;;;;;;5115969;27;20201;-76
2022/08/30 07:53:41;;;;;;;7.53;4.68;;;20.70;99.90;;;;;;5091814;28;20556;-77
2022/08/30 07:56:08;;;;;;;5.47;4.63;;;20.70;99.90;;;;;;5075378;28;20235;-78
2022/08/30 07:58:38;;;;;;;6.32;5.22;;;20.70;99.90;;;;;;5072072;28;20221;-77
2022/08/30 08:01:07;;;;;;;5.78;4.07;;;20.40;99.90;;;;;;5080483;28;20201;-77
2022/08/30 08:03:35;;;;;;;5.00;4.50;;;20.60;99.90;;;;;;5064377;28;20194;-77
2022/08/30 08:06:04;;;;;;;4.40;4.00;;;20.50;99.90;;;;;;5064576;28;20263;-77
2022/08/30 08:08:32;;;;;;;4.22;3.83;;;20.80;99.90;;;;;;5065948;28;20562;-75
2022/08/30 08:11:06;;;;;;;6.05;4.13;;;20.70;99.90;;;;;;5069370;28;20190;-77
2022/08/30 08:13:36;;;;;;;4.45;4.03;;;20.60;99.90;;;;;;5066944;28;20205;-77
2022/08/30 08:16:05;;;;;;;5.80;4.32;;;20.90;99.90;;;;;;5063180;28;20221;-77
2022/08/30 08:18:33;;;;;;;4.30;3.10;;;21.00;99.90;;;;;;5062975;28;20210;-78
2022/08/30 08:21:01;;;;;;;7.00;4.43;;;21.30;99.90;;;;;;5058276;28;20204;-78
2022/08/30 08:23:29;;;;;;;4.35;3.92;;;21.30;99.90;;;;;;5063329;28;20825;-78
2022/08/30 08:25:57;;;;;;;6.15;4.20;;;21.20;99.90;;;;;;5060533;28;20241;-79
2022/08/30 08:28:25;;;;;;;5.35;4.25;;;21.10;99.90;;;;;;5060378;28;20190;-78
2022/08/30 08:30:52;;;;;;;6.00;4.10;;;21.20;99.90;;;;;;5078363;28;20209;-78
2022/08/30 08:33:21;;;;;;;4.68;3.60;;;21.40;99.90;;;;;;5049345;28;20674;-78
2022/08/30 08:35:51;;;;;;;5.97;3.58;;;21.50;99.90;;;;;;5058210;28;20217;-79
2022/08/30 08:38:18;;;;;;;4.80;4.30;;;21.40;99.90;;;;;;5060148;28;20220;-79
2022/08/30 08:40:59;;;;;;;6.07;3.63;;;21.20;99.90;;;;;;5065124;28;20205;-78
2022/08/30 08:43:27;;;;;;;5.22;3.42;;;21.30;99.90;;;;;;5065538;28;20201;-78
2022/08/30 08:46:01;;;;;;;5.38;3.83;;;21.40;99.90;;;;;;5066496;28;20225;-78
2022/08/30 08:48:35;;;;;;;4.03;3.38;;;21.50;99.90;;;;;;5068130;28;20198;-77
2022/08/30 08:53:55;;;;;;;4.35;3.40;;;21.50;99.90;;;;;;5066329;28;20201;-78
2022/08/30 08:56:23;;;;;;;5.72;4.53;;;21.70;99.90;;;;;;5065063;28;20217;-78
2022/08/30 08:58:53;;;;;;;3.70;3.13;;;21.80;99.90;;;;;;5066628;28;20232;-78
2022/08/30 09:01:23;;;;;;;4.93;3.58;;;21.80;99.90;;;;;;5070682;28;20219;-77
2022/08/30 09:03:52;;;;;;;4.13;3.70;;;21.70;99.90;;;;;;5058874;28;20563;-77
2022/08/30 09:06:33;;;;;;;4.82;4.32;;;21.30;99.90;;;;;;5063445;28;20586;-78
2022/08/30 09:09:01;;;;;;;5.68;3.78;;;21.40;99.90;;;;;;5063418;28;20200;-77
2022/08/30 09:11:32;;;;;;;6.05;4.28;;;21.60;99.90;;;;;;5099271;27;20201;-78
2022/08/30 09:13:59;;;;;;;4.05;3.75;;;21.60;99.90;;;;;;5067041;28;20201;-78
2022/08/30 09:16:53;;;;;;;4.03;3.72;;;21.40;99.90;;;;;;5061074;28;20214;-78
2022/08/30 09:19:38;;;;;;;5.22;4.15;;;21.50;99.90;;;;;;5097320;27;20209;-78
2022/08/30 09:22:19;;;;;;;5.28;4.78;;;21.70;99.90;;;;;;5060400;28;20194;-78
2022/08/30 09:24:49;;;;;;;5.18;4.45;;;21.70;99.90;;;;;;5062310;28;20557;-78
2022/08/30 09:27:26;;;;;;;4.53;3.83;;;21.60;99.90;;;;;;5071101;28;20193;-78
2022/08/30 09:29:58;;;;;;;5.22;4.72;;;21.70;99.90;;;;;;5090678;28;20569;-77
2022/08/30 09:32:32;;;;;;;6.55;4.35;;;21.70;99.90;;;;;;5063870;28;20198;-77
2022/08/30 09:35:01;;;;;;;5.13;3.58;;;21.70;99.90;;;;;;5068334;28;20281;-77
2022/08/30 09:37:37;;;;;;;5.30;4.50;;;21.80;99.90;;;;;;5065950;28;20199;-77
2022/08/30 09:40:11;;;;;;;5.82;3.80;;;21.90;99.90;;;;;;5067104;28;20221;-78
2022/08/30 09:42:39;;;;;;;4.28;3.53;;;21.90;99.90;;;;;;5061576;28;20204;-78
2022/08/30 09:45:19;;;;;;;5.82;3.50;;;22.00;99.90;;;;;;5065943;28;20214;-78
2022/08/30 09:47:46;;;;;;;4.85;4.32;;;22.20;99.90;;;;;;5064021;28;20216;-78
2022/08/30 09:50:18;;;;;;;3.60;3.05;;;22.20;99.90;;;;;;5065500;28;20212;-78
2022/08/30 09:52:56;;;;;;;4.22;3.55;;;22.40;99.90;;;;;;5080302;28;20205;-78
2022/08/30 09:55:51;;;;;;;7.07;3.92;;;22.50;99.90;;;;;;5065268;28;20217;-78
2022/08/30 09:58:32;;;;;;;3.10;2.80;;;22.60;99.90;;;;;;5061205;28;20210;-79
2022/08/30 10:01:09;;;;;;;3.08;2.78;;;22.50;99.90;;;;;;5066014;28;20201;-77
2022/08/30 10:03:43;;;;;;;3.88;3.58;;;22.50;99.90;;;;;;5078253;28;20201;-78
2022/08/30 10:06:27;;;;;;;3.50;3.20;;;22.70;99.90;;;;;;5064189;28;20814;-77
2022/08/30 10:09:06;;;;;;;7.57;3.90;;;22.70;99.90;;;;;;5062863;28;20247;-77
2022/08/30 10:11:42;;;;;;;5.28;3.47;;;22.40;99.90;;;;;;5067224;28;20260;-78
2022/08/30 10:14:42;;;;;;;4.82;4.43;;;22.70;99.90;;;;;;5068985;28;20197;-78
2022/08/30 10:17:18;;;;;;;3.42;3.13;;;22.90;99.90;;;;;;5062424;28;20197;-77
2022/08/30 10:19:57;;;;;;;3.47;3.17;;;22.80;99.90;;;;;;5065948;28;20216;-78
2022/08/30 10:22:31;;;;;;;3.58;2.33;;;23.00;99.90;;;;;;5067727;28;20194;-78
2022/08/30 10:25:09;;;;;;;2.75;2.13;;;23.10;99.90;;;;;;5061499;28;20218;-78
2022/08/30 10:27:43;;;;;;;3.75;2.58;;;23.10;99.90;;;;;;5060331;28;20682;-78
2022/08/30 10:30:13;;;;;;;3.75;2.92;;;23.10;99.90;;;;;;5092891;28;20197;-78
2022/08/30 10:32:48;;;;;;;4.40;2.58;;;23.30;99.60;;;;;;5094567;28;20205;-78
2022/08/30 10:35:18;;;;;;;2.65;2.45;;;23.40;99.90;;;;;;5063666;28;20233;-80
2022/08/30 10:37:52;;;;;;;4.40;3.08;;;23.60;99.00;;;;;;5098353;28;20646;-78
2022/08/30 10:43:28;;;;;;;3.63;2.67;;;23.20;98.90;;;;;;5089228;27;20205;-78
2022/08/30 10:45:59;;;;;;;3.83;3.22;;;23.60;98.60;;;;;;5058339;28;20228;-78
2022/08/30 10:48:30;;;;;;;3.05;2.78;;;23.80;97.70;;;;;;5063164;28;20216;-78
2022/08/30 10:51:04;;;;;;;4.03;2.63;;;23.80;98.10;;;;;;5059508;28;20533;-78
2022/08/30 10:53:40;;;;;;;4.43;3.10;;;24.00;97.30;;;;;;5063171;28;20201;-78
2022/08/30 10:56:12;;;;;;;5.13;3.35;;;24.10;96.20;;;;;;5062974;28;20221;-78
2022/08/30 10:58:40;;;;;;;3.97;3.30;;;24.10;96.00;;;;;;5062978;28;20193;-78
2022/08/30 11:01:27;;;;;;;3.65;3.35;;;24.10;95.60;;;;;;5063934;28;20202;-78
2022/08/30 11:04:22;;;;;;;4.60;3.30;;;24.20;95.70;;;;;;5063272;28;20201;-78
2022/08/30 11:06:57;;;;;;;5.30;4.07;;;24.30;95.40;;;;;;5077646;28;20234;-78
2022/08/30 11:09:44;;;;;;;4.45;3.10;;;24.40;94.90;;;;;;5076353;28;20189;-78
2022/08/30 11:12:31;;;;;;;7.38;3.70;;;24.40;93.80;;;;;;5063412;28;20659;-78
2022/08/30 11:14:59;;;;;;;4.57;3.95;;;24.40;94.70;;;;;;5067618;28;20221;-78
2022/08/30 11:17:32;;;;;;;4.40;3.25;;;24.50;94.20;;;;;;5067214;28;20201;-79
2022/08/30 11:20:02;;;;;;;5.95;4.18;;;24.60;94.20;;;;;;5059439;28;20225;-78
2022/08/30 11:22:32;;;;;;;4.07;3.67;;;24.60;93.10;;;;;;5058935;28;20203;-78
2022/08/30 11:25:11;;;;;;;3.63;3.30;;;24.70;93.10;;;;;;5054902;28;20729;-78
2022/08/30 11:27:48;;;;;;;3.88;2.83;;;24.60;93.30;;;;;;5061021;28;20189;-78
2022/08/30 11:30:51;;;;;;;3.80;3.50;;;24.90;93.50;;;;;;5065381;28;20197;-78
2022/08/30 11:33:39;;;;;;;7.55;3.40;;;24.80;92.90;;;;;;5056358;28;21830;-79
2022/08/30 11:36:07;;;;;;;4.40;2.95;;;25.00;92.20;;;;;;5069179;28;20320;-79
2022/08/30 11:39:01;;;;;;;5.78;3.20;;;25.10;92.00;;;;;;5066573;28;20205;-79
2022/08/30 11:41:34;;;;;;;4.80;3.78;;;25.10;91.10;;;;;;5078144;28;20194;-78
2022/08/30 11:44:28;;;;;;;3.50;3.20;;;25.30;91.10;;;;;;5062179;28;20201;-78
2022/08/30 11:46:57;;;;;;;5.93;3.72;;;25.20;90.70;;;;;;5067062;28;20233;-78
2022/08/30 11:49:57;;;;;;;5.22;3.60;;;25.00;91.40;;;;;;5067033;28;20194;-78
2022/08/30 11:52:40;;;;;;;2.97;2.70;;;24.70;91.70;;;;;;5064783;28;20202;-78
2022/08/30 11:55:37;;;;;;;5.00;2.97;;;24.90;91.20;;;;;;5063111;28;20229;-78
2022/08/30 11:58:25;;;;;;;3.72;3.40;;;24.80;90.90;;;;;;5058135;28;20198;-78
2022/08/30 12:01:14;;;;;;;4.50;2.88;;;25.00;90.80;;;;;;5068600;28;20224;-78
2022/08/30 12:03:43;;;;;;;3.17;2.90;;;24.80;90.70;;;;;;5066403;28;20210;-78
2022/08/30 12:06:12;;;;;;;3.33;3.03;;;25.30;90.20;;;;;;5064178;28;20233;-78
2022/08/30 12:08:53;;;;;;;2.83;2.63;;;25.70;89.20;;;;;;5075709;28;20202;-78
2022/08/30 12:12:01;;;;;;;4.97;3.35;;;25.70;88.40;;;;;;5093058;27;20197;-79
2022/08/30 12:14:40;;;;;;;3.10;2.78;;;25.60;88.30;;;;;;5060234;28;20206;-78
2022/08/30 12:20:04;;;;;;;3.90;3.17;;;25.50;87.60;;;;;;5094322;28;20217;-78
2022/08/30 12:22:36;;;;;;;3.80;2.97;;;25.30;88.40;;;;;;5059733;28;20186;-78
2022/08/30 12:25:16;;;;;;;4.05;3.53;;;25.80;87.40;;;;;;5061070;28;20213;-78
2022/08/30 12:28:07;;;;;;;3.30;2.78;;;26.10;86.10;;;;;;5061952;28;20197;-78
2022/08/30 12:30:38;;;;;;;2.85;2.65;;;26.20;85.10;;;;;;5068704;28;20639;-79
2022/08/30 12:33:10;;;;;;;3.53;2.78;;;26.50;84.40;;;;;;5078789;28;20190;-80
2022/08/30 12:35:44;;;;;;;3.38;2.65;;;26.70;82.80;;;;;;5084213;28;20232;-79
2022/08/30 12:38:17;;;;;;;3.47;2.85;;;26.80;80.80;;;;;;5069933;28;20197;-79
2022/08/30 12:40:53;;;;;;;3.92;2.70;;;26.40;81.40;;;;;;5065930;28;20652;-79
2022/08/30 12:43:29;;;;;;;4.82;2.97;;;25.90;81.50;;;;;;5072291;28;20204;-79
2022/08/30 12:46:02;;;;;;;4.10;2.70;;;26.30;82.10;;;;;;5083851;28;20223;-79
2022/08/30 12:48:35;;;;;;;4.90;3.38;;;26.10;83.50;;;;;;5065805;28;20245;-80
2022/08/30 12:51:03;;;;;;;3.03;2.72;;;26.00;82.00;;;;;;5067770;28;20200;-79
2022/08/30 12:53:34;;;;;;;4.05;2.92;;;25.90;81.20;;;;;;5102759;27;20205;-79
2022/08/30 12:56:05;;;;;;;4.78;2.47;;;25.70;81.50;;;;;;5082353;28;20232;-80
2022/08/30 12:58:40;;;;;;;3.33;2.70;;;25.90;82.70;;;;;;5070383;28;20198;-81
2022/08/30 13:01:19;;;;;;;3.33;2.30;;;25.90;81.40;;;;;;5073170;28;20216;-80
2022/08/30 13:04:27;;;;;;;2.83;2.47;;;25.90;81.80;;;;;;5073734;28;20189;-79
2022/08/30 13:06:57;;;;;;;4.03;2.72;;;26.30;80.90;;;;;;5069750;28;20695;-82
2022/08/30 13:09:30;;;;;;;3.55;2.25;;;26.50;79.10;;;;;;5068351;28;20702;-79
2022/08/30 13:11:58;;;;;;;4.40;2.55;;;26.80;78.10;;;;;;5071059;28;20193;-80
2022/08/30 13:14:33;;;;;;;3.33;2.50;;;26.90;78.10;;;;;;5072017;28;20201;-80
2022/08/30 13:17:22;;;;;;;4.05;2.90;;;27.20;76.70;;;;;;5071763;28;20200;-80
2022/08/30 13:20:01;;;;;;;2.85;2.65;;;26.80;74.80;;;;;;5073040;28;20210;-80
2022/08/30 13:22:31;;;;;;;4.07;2.80;;;26.70;75.50;;;;;;5065210;28;20201;-81
2022/08/30 13:24:59;;;;;;;3.45;2.80;;;27.10;74.70;;;;;;5065782;28;20217;-80
2022/08/30 13:27:28;;;;;;;2.50;2.13;;;27.00;74.60;;;;;;5102725;27;20213;-80
2022/08/30 13:29:57;;;;;;;3.85;2.42;;;27.20;75.10;;;;;;5071104;28;20205;-80
2022/08/30 13:32:25;;;;;;;4.30;2.50;;;27.30;73.00;;;;;;5071296;28;20198;-80
2022/08/30 13:34:53;;;;;;;2.88;2.55;;;27.00;75.00;;;;;;5070414;28;20633;-82
2022/08/30 13:37:23;;;;;;;3.05;2.20;;;27.00;75.30;;;;;;5059705;28;20198;-80
2022/08/30 13:39:50;;;;;;;3.83;2.70;;;27.40;74.40;;;;;;5073151;28;20694;-79
2022/08/30 13:42:18;;;;;;;2.40;2.25;;;26.80;75.00;;;;;;5096009;28;20660;-80
2022/08/30 13:44:46;;;;;;;4.95;2.90;;;27.60;72.30;;;;;;5063654;28;20675;-80
2022/08/30 13:47:14;;;;;;;5.60;2.63;;;27.40;72.00;;;;;;5071623;28;20655;-80
2022/08/30 13:49:43;;;;;;;2.90;2.60;;;27.20;74.10;;;;;;5073652;28;20208;-80
2022/08/30 13:52:13;;;;;;;3.05;2.85;;;27.50;72.30;;;;;;5069919;28;20742;-80
2022/08/30 13:54:41;;;;;;;4.25;2.60;;;27.70;70.70;;;;;;5069638;28;20198;-80
2022/08/30 13:57:08;;;;;;;2.97;2.70;;;27.90;70.20;;;;;;5067738;28;20648;-80
2022/08/30 13:59:35;;;;;;;4.07;2.40;;;27.70;69.60;;;;;;5104330;28;20204;-80
2022/08/30 14:02:03;;;;;;;2.90;2.70;;;27.90;68.80;;;;;;5070821;28;20221;-80
2022/08/30 14:04:31;;;;;;;4.15;2.55;;;28.30;67.60;;;;;;5066056;28;20203;-80
2022/08/30 14:06:59;;;;;;;3.40;2.58;;;28.40;66.00;;;;;;5074284;28;20218;-80
2022/08/30 14:09:27;;;;;;;2.95;2.70;;;27.80;65.60;;;;;;5071008;28;20209;-80
2022/08/30 14:11:54;;;;;;;3.83;2.70;;;28.20;67.60;;;;;;5103913;28;20568;-80
2022/08/30 14:14:23;;;;;;;2.53;2.33;;;28.30;67.10;;;;;;5072979;28;20655;-80
2022/08/30 14:16:50;;;;;;;2.53;2.33;;;28.70;64.50;;;;;;5068966;28;20224;-80
2022/08/30 14:19:18;;;;;;;2.50;2.30;;;28.50;61.90;;;;;;5070005;28;20205;-82
2022/08/30 14:21:46;;;;;;;3.38;2.20;;;28.80;62.40;;;;;;5063207;28;20225;-82
2022/08/30 14:24:15;;;;;;;2.50;2.30;;;28.50;63.00;;;;;;5070767;28;20207;-80
2022/08/30 14:26:46;;;;;;;2.50;2.30;;;28.60;61.50;;;;;;5070906;28;20221;-80
2022/08/30 14:29:15;;;;;;;2.95;2.20;;;28.20;64.00;;;;;;5071984;28;20197;-80
2022/08/30 14:31:44;;;;;;;3.78;2.20;;;28.60;62.90;;;;;;5059928;28;20209;-80
2022/08/30 14:34:12;;;;;;;5.65;2.97;;;28.60;61.40;;;;;;5105088;28;20237;-80
2022/08/30 14:36:41;;;;;;;5.47;2.80;;;28.70;59.90;;;;;;5066958;28;20214;-80
2022/08/30 14:39:11;;;;;;;4.18;2.50;;;29.00;58.90;;;;;;5070248;28;20201;-81
2022/08/30 14:41:45;;;;;;;4.40;2.10;;;29.50;58.30;;;;;;5069507;28;20221;-80
2022/08/30 14:44:13;;;;;;;2.30;2.10;;;29.70;57.00;;;;;;5071653;28;20200;-81
2022/08/30 14:46:41;;;;;;;3.33;1.98;;;29.10;57.30;;;;;;5061292;28;20586;-80
2022/08/30 14:49:12;;;;;;;3.20;2.20;;;28.90;57.30;;;;;;5067819;28;20200;-80
2022/08/30 14:51:39;;;;;;;2.60;2.40;;;28.90;57.10;;;;;;5096086;28;20193;-79
2022/08/30 14:54:10;;;;;;;4.35;2.30;;;28.50;58.60;;;;;;5099516;28;20198;-80
2022/08/30 14:56:39;;;;;;;2.55;2.33;;;28.20;59.70;;;;;;5100624;28;20567;-83
2022/08/30 14:59:08;;;;;;;4.40;2.30;;;28.50;58.90;;;;;;5065545;28;20190;-80
2022/08/30 15:01:36;;;;;;;2.63;2.40;;;28.60;58.70;;;;;;5068918;28;20600;-80
2022/08/30 15:04:04;;;;;;;2.92;2.58;;;27.70;59.40;;;;;;5099143;28;20195;-80
2022/08/30 15:06:32;;;;;;;6.57;2.30;;;28.30;58.90;;;;;;5073656;28;20228;-80
2022/08/30 15:08:59;;;;;;;4.43;2.42;;;28.30;58.60;;;;;;5106048;28;20202;-80
2022/08/30 15:11:27;;;;;;;3.05;2.75;;;28.80;57.90;;;;;;5074169;28;20185;-80
2022/08/30 15:13:55;;;;;;;5.57;2.50;;;29.00;57.40;;;;;;5064596;28;20193;-81
2022/08/30 15:16:27;;;;;;;3.83;2.50;;;28.20;57.20;;;;;;5073864;28;20217;-80
2022/08/30 15:18:56;;;;;;;5.40;2.00;;;28.70;57.80;;;;;;5070701;28;20678;-81
2022/08/30 15:21:26;;;;;;;2.30;2.10;;;28.80;56.40;;;;;;5074600;28;20213;-84
2022/08/30 15:23:54;;;;;;;2.40;2.20;;;29.10;56.00;;;;;;5102798;28;20205;-80
2022/08/30 15:26:28;;;;;;;1.98;1.75;;;29.40;54.50;;;;;;5072674;28;20737;-81
2022/08/30 15:28:56;;;;;;;2.15;1.95;;;29.50;54.20;;;;;;5107705;28;20202;-80
2022/08/30 15:31:29;;;;;;;3.63;2.20;;;29.00;54.20;;;;;;5080847;28;20193;-80
2022/08/30 15:33:57;;;;;;;4.85;2.20;;;28.90;54.90;;;;;;5070188;28;20190;-80
2022/08/30 15:40:20;;;;;;;2.42;2.22;;;28.60;54.40;;;;;;5072763;28;20166;-80
2022/08/30 15:42:48;;;;;;;2.67;2.20;;;28.00;55.20;;;;;;5069288;28;20216;-78
2022/08/30 15:45:16;;;;;;;3.05;2.08;;;27.60;56.30;;;;;;5104205;28;20217;-78
2022/08/30 15:47:44;;;;;;;2.75;2.03;;;27.10;57.50;;;;;;5074619;28;20214;-78
2022/08/30 15:50:12;;;;;;;4.20;2.10;;;27.20;57.50;;;;;;5073424;28;20655;-78
2022/08/30 15:52:39;;;;;;;4.13;2.35;;;27.20;56.90;;;;;;5073104;28;20205;-82
2022/08/30 15:55:08;;;;;;;2.60;2.40;;;27.10;57.10;;;;;;5069364;28;20217;-81
2022/08/30 15:57:36;;;;;;;2.75;2.30;;;26.90;57.50;;;;;;5082571;28;20189;-80
2022/08/30 16:00:05;;;;;;;2.20;2.00;;;26.80;57.90;;;;;;5075230;28;20204;-80
2022/08/30 16:02:34;;;;;;;3.90;2.10;;;26.90;58.90;;;;;;5081934;28;20198;-79
2022/08/30 16:05:04;;;;;;;2.92;2.15;;;26.40;59.60;;;;;;5101960;28;20224;-80
2022/08/30 16:07:32;;;;;;;3.83;2.13;;;26.60;59.50;;;;;;5107017;27;20201;-81
2022/08/30 16:09:59;;;;;;;3.00;1.85;;;26.50;59.70;;;;;;5072972;28;20201;-80
2022/08/30 16:12:27;;;;;;;4.00;2.88;;;26.30;61.20;;;;;;5074857;28;20194;-80
2022/08/30 16:14:54;;;;;;;5.55;2.28;;;26.30;61.00;;;;;;5070935;28;20209;-80
2022/08/30 16:18:00;;;;;;;3.13;2.35;;;26.40;61.00;;;;;;5072707;28;20197;-80
2022/08/30 16:20:29;;;;;;;2.22;2.03;;;26.40;60.70;;;;;;5068449;28;20200;-80
2022/08/30 16:22:57;;;;;;;4.68;2.42;;;26.20;61.60;;;;;;5069435;28;20214;-80
2022/08/30 16:25:24;;;;;;;2.20;2.00;;;25.90;62.50;;;;;;5072282;28;20217;-80
2022/08/30 16:27:52;;;;;;;3.10;2.30;;;26.00;62.50;;;;;;5098436;27;20220;-80
2022/08/30 16:30:19;;;;;;;2.72;2.35;;;25.90;62.50;;;;;;5066783;28;20202;-80
2022/08/30 16:32:53;;;;;;;3.05;2.15;;;25.70;62.60;;;;;;5102474;27;20201;-79
2022/08/30 16:35:21;;;;;;;2.33;1.90;;;25.60;62.90;;;;;;5067598;28;20224;-82
2022/08/30 16:37:49;;;;;;;2.72;2.35;;;25.50;63.70;;;;;;5068352;28;20566;-80
2022/08/30 16:40:17;;;;;;;3.60;2.22;;;25.50;64.40;;;;;;5078533;28;20197;-80
2022/08/30 16:42:45;;;;;;;2.47;2.25;;;25.60;64.20;;;;;;5071852;28;20220;-81
2022/08/30 16:45:12;;;;;;;2.35;1.60;;;25.60;64.20;;;;;;5071063;28;20228;-83
2022/08/30 16:47:40;;;;;;;3.38;2.00;;;25.40;64.70;;;;;;5077757;28;20670;-84
2022/08/30 16:50:09;;;;;;;2.10;1.90;;;25.20;65.40;;;;;;5071732;28;20202;-81
2022/08/30 16:52:46;;;;;;;2.40;1.98;;;24.80;66.80;;;;;;5103134;27;20190;-81
2022/08/30 16:55:15;;;;;;;2.40;2.17;;;24.80;67.90;;;;;;5068568;28;20232;-81
2022/08/30 16:57:42;;;;;;;2.08;1.85;;;24.90;67.30;;;;;;5087663;28;20212;-82
2022/08/30 17:00:11;;;;;;;4.30;2.20;;;25.00;67.10;;;;;;5071455;28;20194;-81
2022/08/30 17:02:39;;;;;;;4.82;2.50;;;25.00;67.40;;;;;;5104525;27;20205;-81
2022/08/30 17:05:07;;;;;;;1.98;1.77;;;24.90;67.50;;;;;;5072944;28;20220;-82
2022/08/30 17:07:35;;;;;;;2.28;1.90;;;24.90;67.60;;;;;;5068715;28;20201;-82
2022/08/30 17:10:03;;;;;;;2.47;2.28;;;24.90;67.90;;;;;;5076216;28;20204;-82
2022/08/30 17:12:41;;;;;;;3.83;1.98;;;24.90;68.20;;;;;;5066880;28;20194;-81
2022/08/30 17:15:10;;;;;;;1.75;1.65;;;24.90;68.00;;;;;;5081927;28;20222;-82
2022/08/30 17:17:38;;;;;;;3.42;2.05;;;24.90;68.30;;;;;;5065150;28;20209;-83
2022/08/30 17:20:08;;;;;;;2.20;2.00;;;24.90;68.50;;;;;;5084513;28;20194;-81
2022/08/30 17:22:36;;;;;;;2.17;1.98;;;24.90;68.50;;;;;;5069448;28;20230;-81
2022/08/30 17:25:04;;;;;;;3.33;2.65;;;24.90;68.90;;;;;;5102345;28;20222;-82
2022/08/30 17:27:31;;;;;;;2.42;1.65;;;24.90;69.00;;;;;;5098341;28;20208;-82
2022/08/30 17:30:00;;;;;;;2.65;1.70;;;24.70;69.00;;;;;;5095939;27;20206;-81
2022/08/30 17:32:30;;;;;;;2.13;1.92;;;24.70;69.20;;;;;;5095886;28;20212;-80
2022/08/30 17:35:02;;;;;;;2.13;1.92;;;24.60;69.30;;;;;;5063626;28;20221;-80
2022/08/30 17:37:35;;;;;;;2.08;1.73;;;24.60;70.30;;;;;;5054037;28;20205;-78
2022/08/30 17:40:10;;;;;;;4.47;2.10;;;24.60;70.70;;;;;;5067847;28;20572;-80
2022/08/30 17:42:39;;;;;;;1.80;1.67;;;24.60;71.50;;;;;;5064631;28;20213;-79
2022/08/30 17:45:09;;;;;;;3.35;1.98;;;24.50;71.90;;;;;;5075631;28;20574;-80
2022/08/30 17:47:37;;;;;;;2.35;1.75;;;24.50;71.50;;;;;;5061141;28;20217;-80
2022/08/30 17:50:15;;;;;;;1.90;1.73;;;24.50;71.60;;;;;;5076453;28;20198;-82
2022/08/30 17:52:43;;;;;;;2.17;1.65;;;24.30;71.60;;;;;;5084510;28;20197;-78
2022/08/30 17:55:11;;;;;;;3.03;1.90;;;24.10;71.90;;;;;;5096748;27;20226;-80
2022/08/30 17:57:41;;;;;;;1.83;1.63;;;24.10;72.40;;;;;;5065832;28;20207;-79
2022/08/30 18:00:14;;;;;;;2.28;1.80;;;24.10;73.30;;;;;;5062506;28;20197;-80
2022/08/30 18:02:41;;;;;;;2.28;1.80;;;24.10;73.70;;;;;;5099239;28;20209;-79
2022/08/30 18:05:10;;;;;;;2.10;1.58;;;24.20;74.30;;;;;;5064687;28;20228;-79
2022/08/30 18:07:39;;;;;;;2.88;1.70;;;24.10;74.30;;;;;;5066678;28;20216;-82
2022/08/30 18:10:07;;;;;;;2.00;1.70;;;24.10;74.40;;;;;;5069945;28;20209;-81
2022/08/30 18:12:35;;;;;;;3.42;1.95;;;24.10;74.60;;;;;;5077487;28;20660;-81
2022/08/30 18:15:02;;;;;;;2.40;1.73;;;24.00;74.90;;;;;;5067803;28;20237;-81
2022/08/30 18:17:50;;;;;;;2.38;1.83;;;24.00;75.80;;;;;;5066406;28;20557;-79
2022/08/30 18:20:38;;;;;;;1.92;1.73;;;23.90;75.80;;;;;;5076658;28;20556;-80
2022/08/30 18:23:06;;;;;;;1.83;1.63;;;23.80;75.40;;;;;;5064304;28;20217;-79
2022/08/30 18:25:33;;;;;;;1.75;1.58;;;23.80;76.50;;;;;;5066042;28;20213;-80
2022/08/30 18:28:06;;;;;;;2.40;1.70;;;23.80;78.00;;;;;;5068417;28;20675;-83
2022/08/30 18:30:34;;;;;;;1.98;1.85;;;23.80;78.20;;;;;;5079831;28;20206;-82
2022/08/30 18:33:10;;;;;;;1.83;1.70;;;23.70;77.60;;;;;;5062719;28;20194;-80
2022/08/30 18:35:38;;;;;;;5.00;2.17;;;23.70;79.00;;;;;;5061004;28;20225;-81
2022/08/30 18:38:06;;;;;;;2.45;2.10;;;23.70;78.60;;;;;;5094210;28;20203;-79
2022/08/30 18:40:33;;;;;;;3.55;1.92;;;23.70;78.80;;;;;;5095406;28;20197;-80
2022/08/30 18:43:06;;;;;;;2.50;2.05;;;23.70;79.90;;;;;;5081604;28;20214;-79
2022/08/30 18:45:34;;;;;;;2.75;2.20;;;23.70;79.70;;;;;;5065770;28;20217;-80
2022/08/30 18:48:01;;;;;;;2.25;2.05;;;23.60;79.20;;;;;;5061170;28;20221;-80
2022/08/30 18:50:31;;;;;;;2.70;1.98;;;23.50;80.30;;;;;;5069835;28;20204;-80
2022/08/30 18:52:58;;;;;;;2.45;2.20;;;23.50;81.00;;;;;;5062533;28;20197;-80
2022/08/30 18:55:26;;;;;;;2.85;2.30;;;23.40;81.70;;;;;;5068713;28;20267;-81
2022/08/30 18:57:54;;;;;;;3.42;2.10;;;23.30;81.50;;;;;;5067078;28;20213;-82
2022/08/30 19:00:22;;;;;;;2.72;2.20;;;23.30;81.20;;;;;;5068921;28;20204;-81
2022/08/30 19:02:53;;;;;;;3.67;2.30;;;23.30;81.60;;;;;;5072260;28;20210;-81
2022/08/30 19:05:22;;;;;;;2.45;1.90;;;23.30;82.20;;;;;;5071680;28;20225;-79
2022/08/30 19:07:52;;;;;;;2.33;2.13;;;23.40;82.00;;;;;;5053362;28;20209;-81
2022/08/30 19:10:23;;;;;;;2.30;2.08;;;23.30;81.70;;;;;;5068868;28;20217;-80
2022/08/30 19:12:51;;;;;;;2.85;2.17;;;23.20;81.60;;;;;;5062501;28;20678;-80
2022/08/30 19:15:19;;;;;;;3.92;2.45;;;23.20;82.70;;;;;;5075591;28;20225;-79
2022/08/30 19:17:48;;;;;;;5.15;2.40;;;23.20;82.50;;;;;;5088888;28;20206;-79
2022/08/30 19:20:20;;;;;;;2.58;2.10;;;23.20;82.90;;;;;;5094114;28;20198;-79
2022/08/30 19:22:48;;;;;;;2.35;2.15;;;23.20;82.90;;;;;;5073675;28;20687;-79
2022/08/30 19:25:18;;;;;;;2.90;2.33;;;23.20;82.70;;;;;;5095280;28;20221;-79
2022/08/30 19:27:46;;;;;;;2.33;2.00;;;23.10;82.40;;;;;;5059562;28;20206;-80
2022/08/30 19:30:18;;;;;;;2.17;2.08;;;23.10;82.10;;;;;;5092366;28;20212;-80
2022/08/30 19:32:46;;;;;;;4.63;2.17;;;23.20;83.20;;;;;;5061791;28;20209;-80
2022/08/30 19:35:13;;;;;;;2.03;1.90;;;23.20;82.10;;;;;;5062144;28;20205;-80
2022/08/30 19:37:41;;;;;;;2.20;2.10;;;23.00;82.70;;;;;;5059164;28;20217;-80
2022/08/30 19:40:15;;;;;;;2.90;2.20;;;23.10;82.60;;;;;;5061678;28;20202;-80
2022/08/30 19:42:44;;;;;;;2.80;2.22;;;23.10;83.20;;;;;;5063388;28;20214;-79
2022/08/30 19:45:16;;;;;;;4.20;1.92;;;23.10;82.10;;;;;;5051686;28;20596;-79
2022/08/30 19:47:44;;;;;;;2.38;1.70;;;22.90;82.60;;;;;;5069324;28;20214;-80
2022/08/30 19:50:12;;;;;;;3.88;2.38;;;22.80;83.10;;;;;;5065907;28;20217;-80
2022/08/30 19:52:40;;;;;;;3.80;2.10;;;22.90;83.30;;;;;;5088456;28;20216;-80
2022/08/30 19:55:09;;;;;;;2.30;1.80;;;22.70;82.80;;;;;;5067935;28;20225;-84
2022/08/30 19:57:36;;;;;;;4.60;2.70;;;22.80;84.40;;;;;;5082034;28;20205;-81
2022/08/30 20:00:07;;;;;;;2.83;2.35;;;22.90;82.90;;;;;;5065875;28;20201;-81
2022/08/30 20:02:40;;;;;;;2.75;2.20;;;22.90;83.00;;;;;;5076000;28;20216;-80
2022/08/30 20:05:08;;;;;;;2.53;2.33;;;22.90;82.60;;;;;;5070478;28;20222;-81
2022/08/30 20:07:39;;;;;;;2.45;2.25;;;22.90;81.90;;;;;;5071311;28;20200;-81
2022/08/30 20:10:10;;;;;;;1.95;1.83;;;22.90;81.40;;;;;;5072092;28;20210;-81
2022/08/30 20:12:38;;;;;;;3.63;1.90;;;22.90;81.10;;;;;;5071797;28;20193;-80